Terminal Aerodrome Forecast
Issued by NWS

Home | Current Version | Previous Version | Text Only | Print | Product List | Glossary On
Versions: 1 2 3 4 5 6 7 8 9 10 11 12 13 14 15 16 17 18 19 20 21
000
FTUS43 KDVN 030520
TAFCID
TAF
KCID 030520Z 0306/0406 18007KT P6SM VCTS SCT080CB BKN200
      WS015/18035KT
     FM031500 20012G22KT P6SM FEW080 BKN150
     FM040200 19007KT P6SM VCTS SCT050CB OVC150 PROB30 0402/0406 2SM
      TSRA BKN030CB OVC050=

USA.gov is the U.S. government's official web portal to all federal, state and local government web resources and services.